createdAt,value
2023-05-23T00:00:25.987Z,4.03
2023-05-23T00:02:53.428Z,4.55
2023-05-23T00:05:20.905Z,4.47
2023-05-23T00:07:48.322Z,4.28
2023-05-23T00:10:15.669Z,4.88
2023-05-23T00:12:42.903Z,5.10
2023-05-23T00:15:10.433Z,6.68
2023-05-23T00:17:38.418Z,5.35
2023-05-23T00:20:11.756Z,5.78
2023-05-23T00:22:43.271Z,5.82
2023-05-23T00:25:11.222Z,6.57
2023-05-23T00:27:38.524Z,6.43
2023-05-23T00:30:06.581Z,6.20
2023-05-23T00:32:34.500Z,5.65
2023-05-23T00:35:01.695Z,5.85
2023-05-23T00:37:28.919Z,6.05
2023-05-23T00:39:56.245Z,5.95
2023-05-23T00:42:23.551Z,6.03
2023-05-23T00:44:51.364Z,5.30
2023-05-23T00:47:18.772Z,5.10
2023-05-23T00:49:46.658Z,5.75
2023-05-23T00:52:15.852Z,6.78
2023-05-23T00:54:43.450Z,5.50
2023-05-23T00:57:11.378Z,6.22
2023-05-23T00:59:39.143Z,5.47
2023-05-23T01:02:06.905Z,5.43
2023-05-23T01:04:36.131Z,5.63
2023-05-23T01:07:03.841Z,5.70
2023-05-23T01:09:32.106Z,4.90
2023-05-23T01:12:25.798Z,5.25
2023-05-23T01:15:08.995Z,5.65
2023-05-23T01:18:16.634Z,6.40
2023-05-23T01:21:01.639Z,5.97
2023-05-23T01:23:55.793Z,4.45
2023-05-23T01:27:16.367Z,4.45
2023-05-23T01:29:53.254Z,4.80
2023-05-23T01:32:23.068Z,4.18
2023-05-23T01:34:54.399Z,4.45
2023-05-23T01:37:21.749Z,4.95
2023-05-23T01:39:49.187Z,4.50
2023-05-23T01:42:16.828Z,4.50
2023-05-23T01:44:46.919Z,4.10
2023-05-23T01:47:16.687Z,4.43
2023-05-23T01:49:45.818Z,3.75
2023-05-23T01:52:15.710Z,4.40
2023-05-23T01:54:44.501Z,4.15
2023-05-23T01:57:13.804Z,4.13
2023-05-23T01:59:41.214Z,5.32
2023-05-23T02:02:09.547Z,4.28
2023-05-23T02:04:36.867Z,4.65
2023-05-23T02:07:04.305Z,3.55
2023-05-23T02:09:31.670Z,4.60
2023-05-23T02:11:59.724Z,4.53
2023-05-23T02:14:28.552Z,4.40
2023-05-23T02:16:55.911Z,5.00
2023-05-23T02:19:23.510Z,4.15
2023-05-23T02:21:50.841Z,4.68
2023-05-23T02:24:18.867Z,4.30
2023-05-23T02:26:46.265Z,5.07
2023-05-23T02:29:13.505Z,4.78
2023-05-23T02:31:40.813Z,4.55
2023-05-23T02:34:08.157Z,4.72
2023-05-23T02:36:37.262Z,4.47
2023-05-23T02:39:05.134Z,4.93
2023-05-23T02:41:32.956Z,4.90
2023-05-23T02:44:00.421Z,4.93
2023-05-23T02:46:29.069Z,4.25
2023-05-23T02:48:56.461Z,4.45
2023-05-23T02:51:23.722Z,3.85
2023-05-23T02:53:51.164Z,4.15
2023-05-23T02:56:18.963Z,4.28
2023-05-23T02:58:46.585Z,4.75
2023-05-23T03:01:14.044Z,4.35
2023-05-23T03:03:42.145Z,5.13
2023-05-23T03:06:10.705Z,6.03
2023-05-23T03:08:38.085Z,4.47
2023-05-23T03:11:05.605Z,4.88
2023-05-23T03:13:32.952Z,4.90
2023-05-23T03:16:00.282Z,5.25
2023-05-23T03:18:27.614Z,4.68
2023-05-23T03:20:56.100Z,4.93
2023-05-23T03:23:24.256Z,4.60
2023-05-23T03:25:51.536Z,4.88
2023-05-23T03:28:18.764Z,4.40
2023-05-23T03:30:46.037Z,4.55
2023-05-23T03:33:13.349Z,4.18
2023-05-23T03:35:40.777Z,6.15
2023-05-23T03:38:08.362Z,4.57
2023-05-23T03:40:35.607Z,4.30
2023-05-23T03:43:07.302Z,4.30
2023-05-23T03:45:37.281Z,3.70
2023-05-23T03:48:11.461Z,4.53
2023-05-23T03:50:40.494Z,4.80
2023-05-23T03:53:08.205Z,4.57
2023-05-23T03:55:36.308Z,4.35
2023-05-23T03:58:03.829Z,4.10
2023-05-23T04:00:31.281Z,4.13
2023-05-23T04:03:00.375Z,4.80
2023-05-23T04:05:27.715Z,4.20
2023-05-23T04:07:55.453Z,4.57
2023-05-23T04:10:23.425Z,4.60
2023-05-23T04:12:51.713Z,3.90
2023-05-23T04:15:21.722Z,3.38
2023-05-23T04:17:58.140Z,3.67
2023-05-23T04:20:26.897Z,3.97
2023-05-23T04:22:54.272Z,3.40
2023-05-23T04:25:22.023Z,3.60
2023-05-23T04:30:30.663Z,3.30
2023-05-23T04:33:00.216Z,3.40
2023-05-23T04:35:29.417Z,4.35
2023-05-23T04:37:57.036Z,3.45
2023-05-23T04:40:26.862Z,4.75
2023-05-23T04:43:18.127Z,4.10
2023-05-23T04:45:50.826Z,3.15
2023-05-23T04:48:28.396Z,3.83
2023-05-23T04:50:57.673Z,3.47
2023-05-23T04:53:25.524Z,3.28
2023-05-23T04:55:53.092Z,3.42
2023-05-23T04:58:20.668Z,3.15
2023-05-23T05:00:48.003Z,3.33
2023-05-23T05:03:17.797Z,3.58
2023-05-23T05:05:46.452Z,3.53
2023-05-23T05:08:15.002Z,3.72
2023-05-23T05:10:42.606Z,3.35
2023-05-23T05:13:11.590Z,3.10
2023-05-23T05:15:46.243Z,3.67
2023-05-23T05:18:14.367Z,3.55
2023-05-23T05:20:42.219Z,3.65
2023-05-23T05:23:10.034Z,4.35
2023-05-23T05:25:38.493Z,3.92
2023-05-23T05:28:06.463Z,4.10
2023-05-23T05:30:46.473Z,4.32
2023-05-23T05:33:14.683Z,4.10
2023-05-23T05:35:42.368Z,3.88
2023-05-23T05:38:11.123Z,4.85
2023-05-23T05:40:40.240Z,3.85
2023-05-23T05:43:07.964Z,4.78
2023-05-23T05:45:35.843Z,3.58
2023-05-23T05:48:03.694Z,4.03
2023-05-23T05:50:31.104Z,3.95
2023-05-23T05:52:58.520Z,4.07
2023-05-23T05:55:25.920Z,4.20
2023-05-23T05:57:55.841Z,4.20
2023-05-23T06:00:25.358Z,4.03
2023-05-23T06:02:57.744Z,4.72
2023-05-23T06:05:37.541Z,4.47
2023-05-23T06:08:05.013Z,4.10
2023-05-23T06:10:32.354Z,4.15
2023-05-23T06:13:00.131Z,4.43
2023-05-23T06:15:27.716Z,3.92
2023-05-23T06:17:55.006Z,4.40
2023-05-23T06:20:22.839Z,4.35
2023-05-23T06:22:50.405Z,4.32
2023-05-23T06:25:18.366Z,4.18
2023-05-23T06:27:47.714Z,4.57
2023-05-23T06:30:15.598Z,4.45
2023-05-23T06:32:42.877Z,4.65
2023-05-23T06:35:10.508Z,4.40
2023-05-23T06:37:43.548Z,4.63
2023-05-23T06:40:13.126Z,4.10
2023-05-23T06:42:40.952Z,4.05
2023-05-23T06:45:19.854Z,4.65
2023-05-23T06:47:48.280Z,4.15
2023-05-23T06:50:15.680Z,4.07
2023-05-23T06:52:43.423Z,3.95
2023-05-23T06:55:14.542Z,4.05
2023-05-23T06:57:42.001Z,3.90
2023-05-23T07:00:10.517Z,4.22
2023-05-23T07:02:46.316Z,4.70
2023-05-23T07:05:15.846Z,4.28
2023-05-23T07:07:48.538Z,4.10
2023-05-23T07:10:16.740Z,4.13
2023-05-23T07:12:47.228Z,4.18
2023-05-23T07:17:56.381Z,3.70
2023-05-23T07:20:23.711Z,4.68
2023-05-23T07:22:54.273Z,4.30
2023-05-23T07:25:23.505Z,4.22
2023-05-23T07:27:52.812Z,4.03
2023-05-23T07:30:22.654Z,3.90
2023-05-23T07:32:50.148Z,3.95
2023-05-23T07:35:18.687Z,3.95
2023-05-23T07:37:49.002Z,3.73
2023-05-23T07:40:17.749Z,4.13
2023-05-23T07:42:45.195Z,3.92
2023-05-23T07:45:13.135Z,3.45
2023-05-23T07:47:43.143Z,3.50
2023-05-23T07:50:11.501Z,3.67
2023-05-23T07:52:39.223Z,3.70
2023-05-23T07:55:08.284Z,4.13
2023-05-23T07:57:35.774Z,3.40
2023-05-23T08:00:03.317Z,4.07
2023-05-23T08:02:31.545Z,4.10
2023-05-23T08:04:59.823Z,3.97
2023-05-23T08:07:27.547Z,3.33
2023-05-23T08:09:59.159Z,4.35
2023-05-23T08:12:26.418Z,4.03
2023-05-23T08:15:02.464Z,3.90
2023-05-23T08:17:33.648Z,3.60
2023-05-23T08:20:01.822Z,4.10
2023-05-23T08:22:30.626Z,3.75
2023-05-23T08:24:58.255Z,4.22
2023-05-23T08:27:27.604Z,4.50
2023-05-23T08:29:58.568Z,4.28
2023-05-23T08:32:26.083Z,4.13
2023-05-23T08:34:53.920Z,4.32
2023-05-23T08:37:21.478Z,4.18
2023-05-23T08:39:49.001Z,4.47
2023-05-23T08:42:30.768Z,4.20
2023-05-23T08:44:58.372Z,4.50
2023-05-23T08:47:26.022Z,4.57
2023-05-23T08:50:02.078Z,4.95
2023-05-23T08:52:33.643Z,4.47
2023-05-23T08:55:06.231Z,4.15
2023-05-23T08:57:36.075Z,4.28
2023-05-23T09:00:20.558Z,4.25
2023-05-23T09:02:48.697Z,4.70
2023-05-23T09:05:36.117Z,4.50
2023-05-23T09:08:03.800Z,4.72
2023-05-23T09:10:31.912Z,4.63
2023-05-23T09:13:01.481Z,4.32
2023-05-23T09:15:31.807Z,4.50
2023-05-23T09:18:03.365Z,4.15
2023-05-23T09:20:33.752Z,3.97
2023-05-23T09:23:08.182Z,4.85
2023-05-23T09:25:40.037Z,4.03
2023-05-23T09:28:07.521Z,4.60
2023-05-23T09:30:40.181Z,4.80
2023-05-23T09:33:08.718Z,4.60
2023-05-23T09:35:36.598Z,4.53
2023-05-23T09:38:03.986Z,4.32
2023-05-23T09:40:33.375Z,4.70
2023-05-23T09:43:07.841Z,4.20
2023-05-23T09:45:35.284Z,3.85
2023-05-23T09:48:03.010Z,4.85
2023-05-23T09:50:34.732Z,4.15
2023-05-23T09:53:04.152Z,4.90
2023-05-23T09:55:31.751Z,4.65
2023-05-23T09:58:01.497Z,5.00
2023-05-23T10:00:29.238Z,4.95
2023-05-23T10:03:13.867Z,4.47
2023-05-23T10:05:48.989Z,4.72
2023-05-23T10:08:19.234Z,4.72
2023-05-23T10:10:58.430Z,4.72
2023-05-23T10:13:30.654Z,4.72
2023-05-23T10:16:20.202Z,4.68
2023-05-23T10:18:55.244Z,4.93
2023-05-23T10:21:36.219Z,4.68
2023-05-23T10:24:05.817Z,4.35
2023-05-23T10:26:33.409Z,4.30
2023-05-23T10:29:01.775Z,5.25
2023-05-23T10:31:30.324Z,4.63
2023-05-23T10:34:28.958Z,4.60
2023-05-23T10:40:20.867Z,4.50
2023-05-23T10:43:10.837Z,5.05
2023-05-23T10:45:42.933Z,4.88
2023-05-23T10:48:33.942Z,4.35
2023-05-23T10:51:06.401Z,4.55
2023-05-23T10:53:40.142Z,4.25
2023-05-23T10:56:10.265Z,3.97
2023-05-23T10:58:39.832Z,4.13
2023-05-23T11:01:15.937Z,3.60
2023-05-23T11:03:54.012Z,3.88
2023-05-23T11:06:38.781Z,4.05
2023-05-23T11:09:26.348Z,5.10
2023-05-23T11:12:03.553Z,4.85
2023-05-23T11:14:33.856Z,5.20
2023-05-23T11:17:13.265Z,5.10
2023-05-23T11:19:55.978Z,5.05
2023-05-23T11:22:30.112Z,4.90
2023-05-23T11:24:59.612Z,5.35
2023-05-23T11:30:13.965Z,4.82
2023-05-23T11:32:43.263Z,4.97
2023-05-23T11:35:11.716Z,5.07
2023-05-23T11:37:40.148Z,3.83
2023-05-23T11:40:28.479Z,3.70
2023-05-23T11:42:56.914Z,3.40
2023-05-23T11:45:25.944Z,3.70
2023-05-23T11:47:54.074Z,3.70
2023-05-23T11:50:21.836Z,3.67
2023-05-23T11:52:52.067Z,3.60
2023-05-23T11:55:23.523Z,3.70
2023-05-23T11:57:52.072Z,4.00
2023-05-23T12:00:20.192Z,3.85
2023-05-23T12:02:49.061Z,4.10
2023-05-23T12:05:16.976Z,4.88
2023-05-23T12:07:49.839Z,3.80
2023-05-23T12:10:18.229Z,3.67
2023-05-23T12:12:45.924Z,3.88
2023-05-23T12:15:13.730Z,3.35
2023-05-23T12:17:48.630Z,4.35
2023-05-23T12:20:16.408Z,6.57
2023-05-23T12:22:44.002Z,6.85
2023-05-23T12:25:12.009Z,7.05
2023-05-23T12:27:44.000Z,6.55
2023-05-23T12:30:19.109Z,6.55
2023-05-23T12:32:47.560Z,8.05
2023-05-23T12:35:16.242Z,8.63
2023-05-23T12:37:47.335Z,7.80
2023-05-23T12:40:19.385Z,7.18
2023-05-23T12:42:53.683Z,7.95
2023-05-23T12:45:37.126Z,7.15
2023-05-23T12:48:06.326Z,7.32
2023-05-23T12:50:34.577Z,6.97
2023-05-23T12:53:02.081Z,5.78
2023-05-23T12:55:29.689Z,5.70
2023-05-23T12:57:57.496Z,5.20
2023-05-23T13:00:24.862Z,4.85
2023-05-23T13:02:52.705Z,6.45
2023-05-23T13:05:21.081Z,7.32
2023-05-23T13:07:48.626Z,8.18
2023-05-23T13:10:16.233Z,7.25
2023-05-23T13:12:43.529Z,5.93
2023-05-23T13:15:12.049Z,6.38
2023-05-23T13:17:39.526Z,6.30
2023-05-23T13:23:13.076Z,5.13
2023-05-23T13:25:41.090Z,5.10
2023-05-23T13:28:08.802Z,4.85
2023-05-23T13:30:36.361Z,5.25
2023-05-23T13:33:04.173Z,5.00
2023-05-23T13:35:31.716Z,5.45
2023-05-23T13:37:59.004Z,4.50
2023-05-23T13:40:26.624Z,4.10
2023-05-23T13:42:54.105Z,4.05
2023-05-23T13:45:23.379Z,4.03
2023-05-23T13:47:51.077Z,4.20
2023-05-23T13:50:18.856Z,3.95
2023-05-23T13:52:48.978Z,8.73
2023-05-23T13:55:17.507Z,6.97
2023-05-23T13:57:45.522Z,3.88
2023-05-23T14:00:14.403Z,3.60
2023-05-23T14:02:41.840Z,3.40
2023-05-23T14:05:09.910Z,3.40
2023-05-23T14:07:38.422Z,4.10
2023-05-23T14:10:07.315Z,5.88
2023-05-23T14:12:34.607Z,6.15
2023-05-23T14:15:01.847Z,4.38
2023-05-23T14:17:29.256Z,4.82
2023-05-23T14:19:56.700Z,6.18
2023-05-23T14:22:23.922Z,4.72
2023-05-23T14:24:51.247Z,4.78
2023-05-23T14:27:19.161Z,5.20
2023-05-23T14:29:47.116Z,4.60
2023-05-23T14:32:14.445Z,4.43
2023-05-23T14:34:42.104Z,3.70
2023-05-23T14:37:09.562Z,3.60
2023-05-23T14:39:36.892Z,3.70
2023-05-23T14:42:04.697Z,3.85
2023-05-23T14:44:32.011Z,4.53
2023-05-23T14:46:59.347Z,4.72
2023-05-23T14:49:26.835Z,5.75
2023-05-23T14:51:54.139Z,6.10
2023-05-23T14:54:21.521Z,7.55
2023-05-23T14:56:51.168Z,10.85
2023-05-23T14:59:20.288Z,9.70
2023-05-23T15:01:47.631Z,10.20
2023-05-23T15:04:15.129Z,9.35
2023-05-23T15:06:42.961Z,10.50
2023-05-23T15:09:10.743Z,8.20
2023-05-23T15:11:39.109Z,7.10
2023-05-23T15:14:06.757Z,6.18
2023-05-23T15:16:36.659Z,5.28
2023-05-23T15:21:32.525Z,4.95
2023-05-23T15:24:00.030Z,5.65
2023-05-23T15:26:27.527Z,5.00
2023-05-23T15:28:55.137Z,4.68
2023-05-23T15:31:22.555Z,5.63
2023-05-23T15:33:50.029Z,5.80
2023-05-23T15:36:17.608Z,6.65
2023-05-23T15:38:45.071Z,5.82
2023-05-23T15:41:12.655Z,5.47
2023-05-23T15:43:40.007Z,5.28
2023-05-23T15:46:07.481Z,6.97
2023-05-23T15:48:35.100Z,7.55
2023-05-23T15:51:02.443Z,8.25
2023-05-23T15:53:34.264Z,7.60
2023-05-23T15:56:04.806Z,10.73
2023-05-23T15:58:32.411Z,11.40
2023-05-23T16:00:59.670Z,10.55
2023-05-23T16:03:27.001Z,7.78
2023-05-23T16:05:54.268Z,6.35
2023-05-23T16:08:21.621Z,6.45
2023-05-23T16:10:49.250Z,6.78
2023-05-23T16:13:18.058Z,7.40
2023-05-23T16:15:45.707Z,6.32
2023-05-23T16:18:14.521Z,7.28
2023-05-23T16:20:42.102Z,6.53
2023-05-23T16:23:09.435Z,6.32
2023-05-23T16:25:36.784Z,7.00
2023-05-23T16:28:04.293Z,6.38
2023-05-23T16:30:32.430Z,6.72
2023-05-23T16:33:00.054Z,6.32
2023-05-23T16:35:27.363Z,7.13
2023-05-23T16:37:54.692Z,6.63
2023-05-23T16:40:22.164Z,6.05
2023-05-23T16:42:49.534Z,6.78
2023-05-23T16:45:16.889Z,7.20
2023-05-23T16:47:44.377Z,6.57
2023-05-23T16:50:12.171Z,7.05
2023-05-23T16:52:40.187Z,6.57
2023-05-23T16:55:08.130Z,6.72
2023-05-23T16:57:35.652Z,7.63
2023-05-23T17:00:05.443Z,6.78
2023-05-23T17:02:33.055Z,7.47
2023-05-23T17:05:00.376Z,6.80
2023-05-23T17:07:27.872Z,7.28
2023-05-23T17:09:55.328Z,7.25
2023-05-23T17:12:22.918Z,6.43
2023-05-23T17:14:50.193Z,7.35
2023-05-23T17:17:17.617Z,7.55
2023-05-23T17:19:45.360Z,6.88
2023-05-23T17:22:12.993Z,6.85
2023-05-23T17:24:40.726Z,7.30
2023-05-23T17:27:08.263Z,6.53
2023-05-23T17:29:35.579Z,7.05
2023-05-23T17:32:03.146Z,6.57
2023-05-23T17:34:30.541Z,7.60
2023-05-23T17:36:58.013Z,7.00
2023-05-23T17:39:25.581Z,7.95
2023-05-23T17:41:53.254Z,7.78
2023-05-23T17:44:20.901Z,8.45
2023-05-23T17:46:48.309Z,8.98
2023-05-23T17:49:15.924Z,9.57
2023-05-23T17:51:43.461Z,9.45
2023-05-23T17:54:10.904Z,10.82
2023-05-23T17:56:38.269Z,11.48
2023-05-23T17:59:05.898Z,11.65
2023-05-23T18:01:34.474Z,10.77
2023-05-23T18:04:02.324Z,11.15
2023-05-23T18:06:29.669Z,11.00
2023-05-23T18:08:56.951Z,10.80
2023-05-23T18:11:25.878Z,10.50
2023-05-23T18:13:53.842Z,11.18
2023-05-23T18:16:21.833Z,10.25
2023-05-23T18:18:49.167Z,9.38
2023-05-23T18:21:18.143Z,10.50
2023-05-23T18:23:45.632Z,10.52
2023-05-23T18:26:13.061Z,9.63
2023-05-23T18:28:40.668Z,10.82
2023-05-23T18:31:07.986Z,9.60
2023-05-23T18:33:35.734Z,9.68
2023-05-23T18:36:03.586Z,10.77
2023-05-23T18:38:31.204Z,10.18
2023-05-23T18:40:58.745Z,10.55
2023-05-23T18:43:26.385Z,10.95
2023-05-23T18:45:53.598Z,11.32
2023-05-23T18:48:21.792Z,12.65
2023-05-23T18:50:49.115Z,15.73
2023-05-23T18:53:16.618Z,16.52
2023-05-23T18:55:44.206Z,15.93
2023-05-23T18:58:11.601Z,18.23
2023-05-23T19:00:39.069Z,17.25
2023-05-23T19:03:06.672Z,15.68
2023-05-23T19:05:34.057Z,17.88
2023-05-23T19:08:01.380Z,17.52
2023-05-23T19:10:29.008Z,15.75
2023-05-23T19:12:56.308Z,14.27
2023-05-23T19:15:24.339Z,15.18
2023-05-23T19:17:52.158Z,15.57
2023-05-23T19:20:20.511Z,14.65
2023-05-23T19:22:52.272Z,13.80
2023-05-23T19:25:21.689Z,13.88
2023-05-23T19:27:49.130Z,14.90
2023-05-23T19:30:16.737Z,14.15
2023-05-23T19:32:44.267Z,13.38
2023-05-23T19:35:12.798Z,13.23
2023-05-23T19:37:42.201Z,14.32
2023-05-23T19:40:10.845Z,13.73
2023-05-23T19:42:38.543Z,14.10
2023-05-23T19:45:06.891Z,12.93
2023-05-23T19:47:34.285Z,12.95
2023-05-23T19:50:02.008Z,12.93
2023-05-23T19:52:29.393Z,14.07
2023-05-23T19:54:57.036Z,12.82
2023-05-23T19:57:26.137Z,13.57
2023-05-23T19:59:54.139Z,13.93
2023-05-23T20:02:22.123Z,14.10
2023-05-23T20:04:49.453Z,14.32
2023-05-23T20:07:16.882Z,13.23
2023-05-23T20:09:44.305Z,16.45
2023-05-23T20:12:11.753Z,15.57
2023-05-23T20:14:39.103Z,13.20
2023-05-23T20:17:08.124Z,13.27
2023-05-23T20:19:36.060Z,14.13
2023-05-23T20:22:03.460Z,15.90
2023-05-23T20:24:32.300Z,15.00
2023-05-23T20:26:59.993Z,14.77
2023-05-23T20:29:27.716Z,13.93
2023-05-23T20:31:56.346Z,14.85
2023-05-23T20:34:23.812Z,16.05
2023-05-23T20:36:51.295Z,15.95
2023-05-23T20:39:21.825Z,14.95
2023-05-23T20:41:49.688Z,13.77
2023-05-23T20:44:17.308Z,14.63
2023-05-23T20:46:45.020Z,16.92
2023-05-23T20:49:12.542Z,15.55
2023-05-23T20:51:39.979Z,16.67
2023-05-23T20:54:07.619Z,16.55
2023-05-23T20:56:35.280Z,17.80
2023-05-23T20:59:02.631Z,16.92
2023-05-23T21:01:30.595Z,15.70
2023-05-23T21:03:57.999Z,16.38
2023-05-23T21:06:25.501Z,16.98
2023-05-23T21:08:52.939Z,18.45
2023-05-23T21:11:20.279Z,18.92
2023-05-23T21:13:47.753Z,18.25
2023-05-23T21:16:15.820Z,18.63
2023-05-23T21:18:43.252Z,19.05
2023-05-23T21:21:10.605Z,17.58
2023-05-23T21:23:38.071Z,18.13
2023-05-23T21:26:05.633Z,19.67
2023-05-23T21:28:32.951Z,18.52
2023-05-23T21:31:03.425Z,18.75
2023-05-23T21:33:31.037Z,16.80
2023-05-23T21:36:00.070Z,17.40
2023-05-23T21:38:29.667Z,23.42
2023-05-23T21:40:57.070Z,20.52
2023-05-23T21:43:24.430Z,20.52
2023-05-23T21:45:51.816Z,19.77
2023-05-23T21:48:19.153Z,21.20
2023-05-23T21:50:46.605Z,21.60
2023-05-23T21:53:14.015Z,19.95
2023-05-23T21:55:41.304Z,21.30
2023-05-23T21:58:08.506Z,21.67
2023-05-23T22:00:35.944Z,19.80
2023-05-23T22:03:03.295Z,19.35
2023-05-23T22:05:30.782Z,21.98
2023-05-23T22:07:58.061Z,19.58
2023-05-23T22:10:25.541Z,19.55
2023-05-23T22:12:52.954Z,19.02
2023-05-23T22:15:20.424Z,20.52
2023-05-23T22:17:47.912Z,18.20
2023-05-23T22:20:16.174Z,19.92
2023-05-23T22:22:43.729Z,19.83
2023-05-23T22:25:11.533Z,20.98
2023-05-23T22:27:38.884Z,18.67
2023-05-23T22:30:07.437Z,21.33
2023-05-23T22:32:34.912Z,20.92
2023-05-23T22:35:03.775Z,20.13
2023-05-23T22:37:31.060Z,21.10
2023-05-23T22:39:58.340Z,19.73
2023-05-23T22:42:25.825Z,19.60
2023-05-23T22:44:53.198Z,17.65
2023-05-23T22:47:20.617Z,20.33
2023-05-23T22:49:48.067Z,21.17
2023-05-23T22:52:16.621Z,22.00
2023-05-23T22:54:44.169Z,21.45
2023-05-23T22:57:11.573Z,24.30
2023-05-23T22:59:39.196Z,23.20
2023-05-23T23:02:06.687Z,25.33
2023-05-23T23:04:34.164Z,22.05
2023-05-23T23:07:02.721Z,22.42
2023-05-23T23:09:30.023Z,20.05
2023-05-23T23:11:57.282Z,19.63
2023-05-23T23:14:24.535Z,17.25
2023-05-23T23:16:53.477Z,18.17
2023-05-23T23:19:20.799Z,17.10
2023-05-23T23:21:48.129Z,17.05
2023-05-23T23:24:15.298Z,16.83
2023-05-23T23:26:42.562Z,15.63
2023-05-23T23:29:09.814Z,15.18
2023-05-23T23:31:37.079Z,14.82
2023-05-23T23:34:04.516Z,14.45
2023-05-23T23:36:31.716Z,15.52
2023-05-23T23:38:59.063Z,14.55
2023-05-23T23:41:27.027Z,15.50
2023-05-23T23:43:54.316Z,15.80
2023-05-23T23:46:21.751Z,15.18
2023-05-23T23:48:49.157Z,16.50
2023-05-23T23:51:16.522Z,16.23
2023-05-23T23:53:45.033Z,16.48
2023-05-23T23:56:14.573Z,16.95
2023-05-23T23:58:41.889Z,16.35
